Annapolis, CA (95412)

9:16 PM PDT on March 30, 2015 (GMT -0700)
MAP BURNT RIDGE (P188) CA PSD | | Change Station
CLOSE
Current Station
Personal Weather Station
Location: Annapolis, CA
Elevation: 787 ft
Nearby Weather Stations

Elev 787 ft 38.67 °N, 123.23 °W | Updated 33 days ago

Partly Cloudy
Partly Cloudy
52 °F
Feels Like 52 °F
N
8
Wind Variable Wind from NNW
Gusts mph

Today
High -- | Low -- °F
--% Chance of Precip.
Yesterday
High -- | Low -- °F
Precip. -- in
7:01 AM 7:34 PM
Waxing Gibbous, 84% visible
Pressure 30.01 in
Visibility 10.0 miles
Clouds Clear
Dew Point 46 °F
Humidity 82%
Rainfall in
Snow Depth Not available.
UV 0 out of 12
Pollen 11.80 out of 12
Air Quality Not available.
Flu Activity Not available.
METAR KSTS 310353Z 15003KT 10SM CLR 13/09 A3003 RMK AO2 SLP161 T01280089

More Conditions Fewer Conditions

Pressure 30.01 in
Visibility 10.0 miles
Clouds Clear
Dew Point 46 °F
Humidity 82%
Rainfall in
Snow Depth Not available.
UV 0 out of 12
Pollen 11.80 out of 12
Air Quality Not available.
Flu Activity Not available.
METAR KSTS 310353Z 15003KT 10SM CLR 13/09 A3003 RMK AO2 SLP161 T01280089

More Conditions Fewer Conditions

10-Day Weather Forecast

Almanac

Astronomy

Mar. 30, 2015 Rise Set
Actual Time
Civil Twilight
Nautical Twilight
Astronomical Twilight
Moon
Length of Visible Light
Length of Day
Tomorrow will be .
, % of the Moon is Illuminated

Today's Extremes

State Highs State Lows

Community

WunderPhotos

Upload Photos

1,809,715 photos uploaded!

WunderBlogs® & News

Nearby

Air Quality

  Air Quality AQ Index Pollutant
Not available.

Snow Depth

Station Depth Elevation

Earthquake Activity

City Distance Mag. Time & Date
Minimum magnitude displayed is 2.5.

Coastal Water Temperatures

Place Temperature

Stations

Nearby Weather Stations

Station Location Temp. Windchill Dew Point Humidity Wind Precip. Elev Updated Type